createdAt,value
2022-11-24T00:01:35.281Z,1
2022-11-24T00:11:35.157Z,1
2022-11-24T00:21:35.323Z,1
2022-11-24T00:31:35.307Z,1
2022-11-24T00:41:35.286Z,1
2022-11-24T00:51:35.160Z,1
2022-11-24T01:01:35.362Z,1
2022-11-24T01:11:35.360Z,1
2022-11-24T01:21:35.280Z,1
2022-11-24T01:31:35.350Z,1
2022-11-24T01:41:35.273Z,1
2022-11-24T01:51:35.345Z,1
2022-11-24T02:01:35.297Z,1
2022-11-24T02:11:35.354Z,1
2022-11-24T02:21:35.273Z,1
2022-11-24T02:31:35.489Z,1
2022-11-24T02:41:35.464Z,1
2022-11-24T02:51:35.331Z,1
2022-11-24T03:01:35.385Z,1
2022-11-24T03:11:35.490Z,1
2022-11-24T03:21:35.499Z,1
2022-11-24T03:31:35.445Z,1
2022-11-24T03:41:35.509Z,1
2022-11-24T03:51:35.361Z,1
2022-11-24T04:01:35.536Z,1
2022-11-24T04:11:35.379Z,1
2022-11-24T04:21:35.587Z,1
2022-11-24T04:31:35.422Z,1
2022-11-24T04:41:35.508Z,1
2022-11-24T04:51:35.574Z,1
2022-11-24T05:01:35.601Z,2
2022-11-24T05:11:35.579Z,1
2022-11-24T05:21:35.504Z,1
2022-11-24T05:31:35.602Z,1
2022-11-24T05:41:35.493Z,1
2022-11-24T05:51:35.572Z,1
2022-11-24T06:01:35.777Z,1
2022-11-24T06:11:35.570Z,1
2022-11-24T06:21:35.686Z,1
2022-11-24T06:31:35.575Z,1
2022-11-24T06:41:35.707Z,1
2022-11-24T06:51:35.561Z,1
2022-11-24T07:01:35.775Z,1
2022-11-24T07:11:35.540Z,2
2022-11-24T07:21:35.672Z,7
2022-11-24T07:31:35.782Z,19
2022-11-24T07:41:35.672Z,32
2022-11-24T07:51:35.747Z,43
2022-11-24T08:01:35.719Z,60
2022-11-24T08:11:35.730Z,63
2022-11-24T08:21:35.668Z,64
2022-11-24T08:31:35.835Z,71
2022-11-24T08:41:35.723Z,75
2022-11-24T08:51:35.790Z,81
2022-11-24T09:01:35.972Z,88
2022-11-24T09:11:35.726Z,91
2022-11-24T09:21:35.851Z,91
2022-11-24T09:31:35.715Z,90
2022-11-24T09:41:35.841Z,91
2022-11-24T09:51:35.700Z,89
2022-11-24T10:01:35.860Z,89
2022-11-24T10:11:35.899Z,89
2022-11-24T10:21:35.817Z,90
2022-11-24T10:31:35.838Z,90
2022-11-24T10:41:35.945Z,91
2022-11-24T10:51:35.774Z,92
2022-11-24T11:01:35.940Z,93
2022-11-24T11:11:35.774Z,95
2022-11-24T11:21:35.904Z,94
2022-11-24T11:31:36.400Z,94
2022-11-24T11:41:35.886Z,94
2022-11-24T11:51:37.453Z,94
2022-11-24T12:01:35.876Z,94
2022-11-24T12:11:35.940Z,94
2022-11-24T12:21:35.878Z,88
2022-11-24T12:31:36.042Z,82
2022-11-24T12:41:43.242Z,79
2022-11-24T12:51:35.955Z,76
2022-11-24T13:01:36.253Z,83
2022-11-24T13:11:35.972Z,76
2022-11-24T13:21:36.106Z,78
2022-11-24T13:31:36.020Z,75
2022-11-24T13:41:36.182Z,81
2022-11-24T13:51:36.014Z,85
2022-11-24T14:01:36.207Z,86
2022-11-24T14:11:36.155Z,88
2022-11-24T14:21:36.227Z,91
2022-11-24T14:31:36.319Z,93
2022-11-24T14:41:36.097Z,93
2022-11-24T14:51:36.200Z,93
2022-11-24T15:01:36.275Z,91
2022-11-24T15:11:36.027Z,88
2022-11-24T15:21:36.204Z,85
2022-11-24T15:31:36.152Z,81
2022-11-24T15:41:36.199Z,77
2022-11-24T15:51:36.056Z,66
2022-11-24T16:01:36.323Z,27
2022-11-24T16:11:36.083Z,9
2022-11-24T16:21:36.210Z,10
2022-11-24T16:31:36.325Z,5
2022-11-24T16:41:36.199Z,2
2022-11-24T16:51:36.246Z,2
2022-11-24T17:01:36.221Z,1
2022-11-24T17:11:36.260Z,1
2022-11-24T17:21:36.173Z,1
2022-11-24T17:31:36.315Z,1
2022-11-24T17:41:36.361Z,1
2022-11-24T17:51:36.257Z,1
2022-11-24T18:01:36.450Z,1
2022-11-24T18:11:36.275Z,1
2022-11-24T18:21:36.397Z,1
2022-11-24T18:31:36.326Z,1
2022-11-24T18:41:36.425Z,1
2022-11-24T18:51:36.375Z,1
2022-11-24T19:01:36.669Z,1
2022-11-24T19:11:36.421Z,1
2022-11-24T19:21:36.377Z,1
2022-11-24T19:31:36.466Z,1
2022-11-24T19:41:36.368Z,1
2022-11-24T19:51:36.444Z,1
2022-11-24T20:01:36.387Z,1
2022-11-24T20:11:36.407Z,1
2022-11-24T20:21:36.543Z,1
2022-11-24T20:31:36.419Z,1
2022-11-24T20:41:36.539Z,1
2022-11-24T20:51:36.406Z,1
2022-11-24T21:01:36.603Z,1
2022-11-24T21:11:36.398Z,1
2022-11-24T21:21:36.524Z,1
2022-11-24T21:31:36.461Z,1
2022-11-24T21:41:36.531Z,1
2022-11-24T21:51:36.581Z,1
2022-11-24T22:01:36.561Z,1
2022-11-24T22:11:36.631Z,1
2022-11-24T22:21:36.546Z,1
2022-11-24T22:31:36.763Z,1
2022-11-24T22:41:36.539Z,1
2022-11-24T22:51:36.604Z,1
2022-11-24T23:01:36.540Z,1
2022-11-24T23:11:38.170Z,1
2022-11-24T23:21:36.513Z,1
2022-11-24T23:31:36.621Z,1
2022-11-24T23:41:36.742Z,1
2022-11-24T23:51:36.597Z,1
